KPIE

St Pete-Clearwater International Airport

St Petersburg-Clearwater, Florida, USA
METAR KPIE 231053Z 19009KT 9SM -RA BKN110 19/19 A3004 RMK AO2 SLP170 P0002 T01940189 $
Observed Flight Rules
Jan-23 @ 10:53 UTC (an hour ago) Visual Flight Rules
Wind Visibility Clouds Conditions
190° at 9 knots 9 miles
  • Broken at 11,000' AGL
  • Light Rain
Temperatures Readings Precipitation
Current 19°C / 66°F
Dewpoint 19°C / 66°F
Humidity 100%
Altimeter 30.04" Hg
Pressure 1017 hPa
Elevation 4
Current Rain 0.02
METAR KPIE 231053Z 19009KT 9SM -RA BKN110 19/19 A3004 RMK AO2 SLP170 P0002 T01940189 $
Observed Flight Rules
Jan-23 @ 10:53 UTC
(an hour ago)
VFR
Wind Visibility
190° at 9 knots 9 miles
Clouds
  • Broken at 11,000' AGL
Conditions
  • Light Rain
Temperature Dewpoint
19°C / 66°F 19°C / 66°F
Humidity Altimeter Pressure
100% 30.04" Hg 1017 hPa
Current Rain
0.02